createdAt,value
2023-05-10T04:21:36.095Z,5.43
2023-05-10T04:24:50.589Z,6.10
2023-05-10T04:28:04.966Z,5.65
2023-05-10T04:31:19.734Z,5.07
2023-05-10T04:34:35.396Z,4.95
2023-05-10T04:37:53.881Z,5.07
2023-05-10T04:41:08.548Z,5.47
2023-05-10T04:44:22.882Z,5.28
2023-05-10T04:47:46.964Z,5.10
2023-05-10T04:51:01.905Z,5.55
2023-05-10T04:54:41.856Z,6.00
2023-05-10T04:58:22.908Z,5.18
2023-05-10T05:01:40.317Z,5.53
2023-05-10T05:05:03.618Z,5.25
2023-05-10T05:08:20.617Z,5.50
2023-05-10T05:15:39.579Z,5.30
2023-05-10T05:19:02.873Z,5.85
2023-05-10T05:22:43.893Z,5.30
2023-05-10T05:25:58.811Z,5.40
2023-05-10T05:29:15.411Z,4.95
2023-05-10T05:32:31.675Z,5.65
2023-05-10T05:36:00.537Z,5.20
2023-05-10T05:39:18.763Z,5.75
2023-05-10T05:43:05.004Z,5.20
2023-05-10T05:47:20.108Z,5.32
2023-05-10T05:51:04.191Z,5.68
2023-05-10T05:54:30.850Z,4.80
2023-05-10T05:57:48.331Z,5.10
2023-05-10T06:01:08.241Z,4.85
2023-05-10T06:05:14.582Z,5.00
2023-05-10T06:08:45.552Z,5.43
2023-05-10T06:15:58.155Z,5.25
2023-05-10T06:19:32.440Z,5.05
2023-05-10T06:22:53.240Z,5.25
2023-05-10T06:26:13.239Z,5.07
2023-05-10T06:29:43.103Z,5.03
2023-05-10T06:33:24.099Z,5.70
2023-05-10T06:36:48.390Z,5.15
2023-05-10T06:40:17.485Z,5.10
2023-05-10T06:43:59.108Z,5.00
2023-05-10T06:48:02.895Z,5.30
2023-05-10T06:51:21.428Z,4.72
2023-05-10T06:55:12.977Z,5.15
2023-05-10T06:58:43.755Z,5.45
2023-05-10T07:02:04.147Z,4.28
2023-05-10T07:09:30.543Z,4.53
2023-05-10T07:13:07.500Z,4.90
2023-05-10T07:16:50.966Z,4.45
2023-05-10T07:20:14.553Z,4.43
2023-05-10T07:24:06.432Z,4.85
2023-05-10T07:27:25.122Z,5.03
2023-05-10T07:31:00.177Z,4.50
2023-05-10T07:34:31.008Z,4.90
2023-05-10T07:38:06.674Z,4.62
2023-05-10T07:41:28.476Z,4.82
2023-05-10T07:45:13.580Z,4.70
2023-05-10T07:48:36.278Z,4.78
2023-05-10T07:51:54.004Z,4.90
2023-05-10T07:55:19.839Z,4.62
2023-05-10T07:58:40.989Z,4.57
2023-05-10T08:02:17.866Z,4.72
2023-05-10T08:09:03.489Z,4.20
2023-05-10T08:12:34.474Z,3.92
2023-05-10T08:15:54.815Z,4.25
2023-05-10T08:19:13.084Z,4.50
2023-05-10T08:22:29.527Z,4.47
2023-05-10T08:25:50.283Z,4.68
2023-05-10T08:29:13.409Z,4.32
2023-05-10T08:32:34.592Z,4.80
2023-05-10T08:35:54.420Z,4.90
2023-05-10T08:39:22.917Z,4.25
2023-05-10T08:42:52.722Z,4.25
2023-05-10T08:46:10.992Z,4.43
2023-05-10T08:49:36.900Z,4.72
2023-05-10T08:53:20.695Z,4.47
2023-05-10T08:56:57.076Z,4.93
2023-05-10T09:00:38.148Z,4.90
2023-05-10T09:07:50.421Z,4.97
2023-05-10T09:11:18.295Z,4.43
2023-05-10T09:14:36.967Z,4.50
2023-05-10T09:18:24.643Z,4.12
2023-05-10T09:21:57.875Z,4.18
2023-05-10T09:25:38.675Z,3.33
2023-05-10T09:28:59.255Z,3.80
2023-05-10T09:32:16.158Z,3.67
2023-05-10T09:43:51.571Z,3.90
2023-05-10T09:47:29.212Z,3.45
2023-05-10T09:50:47.483Z,3.17
2023-05-10T09:54:26.865Z,3.12
2023-05-10T09:57:59.349Z,5.18
2023-05-10T10:05:17.995Z,3.67
2023-05-10T10:08:46.143Z,3.30
2023-05-10T10:12:25.558Z,3.03
2023-05-10T10:16:10.597Z,3.05
2023-05-10T10:20:12.268Z,2.60
2023-05-10T10:24:07.586Z,2.70
2023-05-10T10:28:16.374Z,2.70
2023-05-10T10:32:03.999Z,2.35
2023-05-10T10:35:40.842Z,2.33
2023-05-10T10:39:17.418Z,2.50
2023-05-10T10:47:28.562Z,2.22
2023-05-10T10:54:50.845Z,2.90
2023-05-10T10:58:31.645Z,2.37
2023-05-10T11:02:20.746Z,2.10
2023-05-10T11:06:04.332Z,2.50
2023-05-10T11:09:40.829Z,2.47
2023-05-10T11:14:00.212Z,2.78
2023-05-10T11:17:53.799Z,2.30
2023-05-10T11:21:39.744Z,2.27
2023-05-10T11:25:21.462Z,2.53
2023-05-10T11:29:09.074Z,2.42
2023-05-10T11:32:32.835Z,2.60
2023-05-10T11:35:57.159Z,2.70
2023-05-10T11:39:35.659Z,2.10
2023-05-10T11:43:23.129Z,2.42
2023-05-10T11:47:10.993Z,2.20
2023-05-10T11:50:35.075Z,2.30
2023-05-10T11:53:58.251Z,2.80
2023-05-10T11:57:14.426Z,2.20
2023-05-10T12:00:30.051Z,2.33
2023-05-10T12:03:56.981Z,2.15
2023-05-10T12:07:49.519Z,2.10
2023-05-10T12:11:37.244Z,1.95
2023-05-10T12:18:21.691Z,1.90
2023-05-10T12:22:00.878Z,2.22
2023-05-10T12:25:34.552Z,3.42
2023-05-10T12:28:53.578Z,2.05
2023-05-10T12:32:14.223Z,1.75
2023-05-10T12:35:29.725Z,2.05
2023-05-10T12:39:01.114Z,1.90
2023-05-10T12:46:10.836Z,2.08
2023-05-10T12:49:25.183Z,1.87
2023-05-10T12:52:43.028Z,1.52
2023-05-10T12:56:21.109Z,1.65
2023-05-10T12:59:44.020Z,1.67
2023-05-10T13:06:38.741Z,1.50
2023-05-10T13:09:54.494Z,1.70
2023-05-10T13:13:19.422Z,1.77
2023-05-10T13:17:06.242Z,1.80
2023-05-10T13:20:47.919Z,2.03
2023-05-10T13:24:51.844Z,1.60
2023-05-10T13:28:08.026Z,1.40
2023-05-10T13:31:55.921Z,1.80
2023-05-10T13:35:18.496Z,2.28
2023-05-10T13:38:44.155Z,1.98
2023-05-10T13:42:13.258Z,1.92
2023-05-10T13:45:41.760Z,2.00
2023-05-10T13:49:24.922Z,1.83
2023-05-10T13:52:42.595Z,1.58
2023-05-10T13:55:58.929Z,1.60
2023-05-10T13:59:36.500Z,1.60
2023-05-10T14:02:53.781Z,1.70
2023-05-10T14:06:22.652Z,1.80
2023-05-10T14:10:02.576Z,1.70
2023-05-10T14:13:17.016Z,2.00
2023-05-10T14:16:31.261Z,1.70
2023-05-10T14:19:45.501Z,1.67
2023-05-10T14:23:01.166Z,1.70
2023-05-10T14:26:16.189Z,1.60
2023-05-10T14:29:33.445Z,1.40
2023-05-10T14:32:49.768Z,1.60
2023-05-10T14:36:04.723Z,1.55
2023-05-10T14:39:20.207Z,1.60
2023-05-10T14:42:34.677Z,2.00
2023-05-10T14:45:48.997Z,1.60
2023-05-10T14:49:03.044Z,1.48
2023-05-10T14:52:17.718Z,1.50
2023-05-10T14:55:33.983Z,1.70
2023-05-10T14:58:48.578Z,1.50
2023-05-10T15:02:02.916Z,1.52
2023-05-10T15:05:18.007Z,1.40
2023-05-10T15:08:32.659Z,1.40
2023-05-10T15:11:48.298Z,1.30
